Willow Lake, SD

06:47 CDT le 04 juillet 2015 (GMT -0500)
Iroquois SD | | Change Station
CLOSE
Current Station
Stations météorologiques personnelles
Location: Iroquois, SD
Altitude: 1427 ft
Stations météo à proximité

Alt. 1427 ft 44.45 °N, 97.86 °W | Updated 7 minutes ago

Ciel dégagé
Ciel dégagé
62.4 ° F
Paraît 62.4 ° F
N
3.7
Vent Variable Vent de SSE

Aujourd'hui
Haut(e) -- | Bas -- ° F
--% Risque de précip.
Hier
Haut(e) -- | Bas -- ° F
Precip. -- pouce
5:51 AM 9:19 PM
Lune gibbeuse décroissante, 93% visible
Pression 29.91 pouce
Visibilité 3.0 Miles terrestres
Nuages Ciel dégagé
Point de rosée 60 ° F
Humidité 93%
Précipitations 0.00 pouce
Profondeur de la couche neigeuse Non disponible.
UV 0 sur 12
Pollen 4.70 sur 12
Qualité de l'air Non disponible.
Flu Activity Non disponible.
SPECI KHON 041145Z AUTO 15007KT 120V200 3SM BR CLR 17/17 A2991 RMK AO2 T01720167

More Conditions Fewer Conditions

Pression 29.91 pouce
Visibilité 3.0 Miles terrestres
Nuages Ciel dégagé
Point de rosée 60 ° F
Humidité 93%
Précipitations 0.00 pouce
Profondeur de la couche neigeuse Non disponible.
UV 0 sur 12
Pollen 4.70 sur 12
Qualité de l'air Non disponible.
Flu Activity Non disponible.
SPECI KHON 041145Z AUTO 15007KT 120V200 3SM BR CLR 17/17 A2991 RMK AO2 T01720167

More Conditions Fewer Conditions

10-Day Weather Forecast

×

Almanac

Astronomie

Jul. 04, 2015 Lever Coucher
Temps réel
Crépuscule civil
Crépuscule nautique
Crépuscule astronomique
Lune
Durée de lumière visible
Longueur du jour
Tomorrow will be .
, % of the Moon is Illuminated

Extrêmes aujourd'hui

State Highs State Lows

Community

WunderPhotos

Upload Photos

1,834,939 Photos téléchargées !

WunderBlogs® & News

Nearby

Qualité de l'air

  Qualité de l'air Indice de la qualité de l'air Polluant
Not available.

Épaisseur de neige

Station Depth Altitude

Activité sismique

Ville Distance Mag. Time & Date
Minimum magnitude displayed is 2.5.

Températures des eaux côtières

Lieu Température

Stations

Stations météo à proximité

Emplacement de la station Température Refroidissement éolien Point de rosée Humidité Vent Precip. Alt. Mise à jour Type